createdAt,value
2023-05-05T00:02:19.547Z,10.98
2023-05-05T00:05:24.658Z,11.10
2023-05-05T00:08:29.200Z,10.92
2023-05-05T00:11:32.760Z,11.17
2023-05-05T00:14:36.692Z,11.28
2023-05-05T00:17:41.778Z,11.31
2023-05-05T00:20:47.096Z,11.06
2023-05-05T00:23:50.493Z,10.86
2023-05-05T00:26:54.248Z,10.93
2023-05-05T00:29:57.824Z,10.88
2023-05-05T00:33:03.385Z,10.93
2023-05-05T00:36:07.466Z,11.10
2023-05-05T00:39:12.043Z,11.00
2023-05-05T00:42:16.406Z,10.99
2023-05-05T00:45:21.478Z,11.12
2023-05-05T00:48:26.882Z,11.13
2023-05-05T00:51:31.403Z,11.09
2023-05-05T00:54:35.839Z,10.98
2023-05-05T00:57:39.724Z,11.03
2023-05-05T01:00:43.212Z,10.95
2023-05-05T01:03:48.497Z,10.55
2023-05-05T01:07:04.896Z,10.80
2023-05-05T01:10:20.393Z,10.94
2023-05-05T01:13:33.768Z,10.51
2023-05-05T01:16:42.059Z,10.66
2023-05-05T01:20:00.182Z,10.83
2023-05-05T01:23:10.902Z,11.05
2023-05-05T01:26:29.047Z,10.87
2023-05-05T01:30:04.504Z,11.00
2023-05-05T01:33:15.741Z,11.10
2023-05-05T01:36:24.618Z,10.95
2023-05-05T01:39:34.740Z,11.03
2023-05-05T01:42:42.707Z,10.75
2023-05-05T01:45:48.097Z,10.74
2023-05-05T01:48:55.014Z,10.58
2023-05-05T01:52:00.827Z,10.90
2023-05-05T01:55:07.851Z,10.87
2023-05-05T01:58:13.490Z,10.28
2023-05-05T02:01:20.522Z,10.75
2023-05-05T02:04:26.171Z,10.70
2023-05-05T02:07:32.868Z,10.86
2023-05-05T02:10:40.918Z,11.04
2023-05-05T02:13:46.196Z,10.92
2023-05-05T02:16:54.015Z,10.75
2023-05-05T02:20:02.334Z,10.61
2023-05-05T02:23:08.388Z,10.37
2023-05-05T02:26:17.074Z,10.74
2023-05-05T02:29:47.505Z,10.97
2023-05-05T02:32:57.147Z,11.18
2023-05-05T02:36:13.829Z,10.85
2023-05-05T02:39:31.954Z,10.95
2023-05-05T02:42:42.916Z,10.96
2023-05-05T02:45:49.190Z,10.98
2023-05-05T02:48:54.037Z,10.99
2023-05-05T02:51:59.337Z,10.80
2023-05-05T02:55:08.710Z,9.93
2023-05-05T02:58:25.710Z,10.71
2023-05-05T03:01:37.835Z,10.86
2023-05-05T03:04:46.462Z,10.81
2023-05-05T03:07:56.869Z,10.86
2023-05-05T03:11:07.860Z,10.25
2023-05-05T03:14:18.443Z,10.78
2023-05-05T03:17:25.687Z,10.36
2023-05-05T03:20:30.786Z,10.79
2023-05-05T03:23:40.875Z,10.85
2023-05-05T03:26:51.552Z,10.84
2023-05-05T03:29:58.784Z,10.57
2023-05-05T03:33:03.561Z,10.82
2023-05-05T03:36:07.967Z,10.94
2023-05-05T03:39:13.432Z,11.13
2023-05-05T03:42:17.626Z,11.24
2023-05-05T03:45:21.687Z,11.37
2023-05-05T03:48:25.857Z,11.44
2023-05-05T03:51:29.604Z,11.45
2023-05-05T03:54:37.325Z,11.43
2023-05-05T03:57:40.834Z,11.53
2023-05-05T04:00:44.818Z,11.08
2023-05-05T04:03:48.413Z,10.99
2023-05-05T04:06:52.390Z,11.30
2023-05-05T04:09:57.981Z,11.29
2023-05-05T04:13:02.152Z,11.24
2023-05-05T04:16:08.846Z,11.37
2023-05-05T04:19:14.531Z,11.45
2023-05-05T04:22:18.144Z,11.41
2023-05-05T04:25:23.509Z,11.36
2023-05-05T04:28:27.380Z,11.38
2023-05-05T04:31:32.167Z,10.32
2023-05-05T04:34:36.298Z,10.33
2023-05-05T04:37:40.377Z,10.72
2023-05-05T04:40:46.327Z,10.33
2023-05-05T04:43:50.169Z,10.67
2023-05-05T04:46:53.814Z,10.78
2023-05-05T04:49:58.164Z,10.83
2023-05-05T04:53:01.975Z,11.05
2023-05-05T04:56:08.027Z,11.04
2023-05-05T04:59:11.756Z,11.01
2023-05-05T05:02:15.717Z,11.32
2023-05-05T05:05:19.519Z,10.82
2023-05-05T05:08:24.136Z,10.58
2023-05-05T05:11:29.244Z,10.24
2023-05-05T05:14:38.159Z,10.56
2023-05-05T05:17:42.503Z,11.07
2023-05-05T05:20:47.200Z,11.24
2023-05-05T05:23:51.538Z,11.43
2023-05-05T05:26:57.539Z,11.34
2023-05-05T05:30:01.571Z,11.69
2023-05-05T05:33:07.993Z,11.95
2023-05-05T05:36:11.748Z,11.96
2023-05-05T05:39:15.668Z,12.24
2023-05-05T05:42:20.969Z,12.35
2023-05-05T05:45:25.270Z,12.48
2023-05-05T05:48:30.003Z,12.69
2023-05-05T05:51:35.753Z,13.14
2023-05-05T05:54:49.116Z,13.73
2023-05-05T05:57:57.745Z,13.50
2023-05-05T06:01:04.095Z,14.29
2023-05-05T06:04:08.754Z,14.83
2023-05-05T06:07:14.445Z,15.14
2023-05-05T06:10:26.399Z,15.40
2023-05-05T06:13:36.230Z,15.55
2023-05-05T06:16:41.630Z,15.58
2023-05-05T06:19:49.305Z,15.94
2023-05-05T06:22:53.604Z,16.57
2023-05-05T06:25:57.752Z,17.07
2023-05-05T06:29:03.015Z,17.23
2023-05-05T06:32:08.521Z,17.71
2023-05-05T06:35:12.508Z,18.09
2023-05-05T06:38:16.043Z,18.61
2023-05-05T06:41:19.953Z,19.39
2023-05-05T06:44:25.256Z,20.38
2023-05-05T06:47:28.847Z,21.30
2023-05-05T06:50:32.941Z,21.86
2023-05-05T06:53:36.579Z,22.43
2023-05-05T06:56:41.044Z,22.83
2023-05-05T06:59:45.785Z,23.24
2023-05-05T07:02:49.699Z,23.36
2023-05-05T07:05:53.917Z,23.03
2023-05-05T07:08:58.009Z,22.19
2023-05-05T07:12:02.032Z,21.22
2023-05-05T07:15:23.286Z,20.72
2023-05-05T07:18:30.688Z,20.59
2023-05-05T07:21:35.481Z,20.73
2023-05-05T07:24:38.958Z,21.80
2023-05-05T07:27:42.966Z,22.69
2023-05-05T07:30:47.878Z,22.38
2023-05-05T07:33:52.181Z,22.32
2023-05-05T07:36:56.424Z,22.38
2023-05-05T07:40:00.327Z,22.38
2023-05-05T07:43:04.848Z,22.17
2023-05-05T07:46:10.134Z,22.77
2023-05-05T07:49:13.709Z,22.51
2023-05-05T07:52:46.803Z,22.38
2023-05-05T07:55:55.211Z,23.48
2023-05-05T07:58:59.212Z,22.39
2023-05-05T08:02:04.149Z,20.75
2023-05-05T08:05:09.475Z,21.13
2023-05-05T08:08:13.334Z,21.40
2023-05-05T08:11:17.334Z,21.18
2023-05-05T08:14:22.009Z,21.37
2023-05-05T08:17:27.348Z,21.31
2023-05-05T08:20:31.053Z,21.13
2023-05-05T08:23:35.272Z,20.85
2023-05-05T08:26:38.806Z,19.91
2023-05-05T08:29:42.660Z,20.45
2023-05-05T08:32:48.182Z,20.58
2023-05-05T08:35:52.142Z,20.04
2023-05-05T08:38:55.814Z,19.95
2023-05-05T08:41:59.694Z,19.21
2023-05-05T08:45:03.337Z,19.54
2023-05-05T08:48:10.306Z,19.30
